DLH864 EDDF-ENGM
Flight info
| Callsign | DLH864 |
|---|---|
| Flight time | N/A |
| Altitude | 37000 |
| Route | MARUN3W MARUN Y150 TOLGI DCT ALASA DCT INVOL DCT SABAK L997 LUNIP |
| Aircraft | A320/M-SDE2E3FGIJ1LORWXYZ/HB1 |
Departure
| Time | 2026-05-07 12:17 |
|---|---|
| Airport | Frankfurt Main Airport (EDDF) |
Arrival
| Time | N/A |
|---|---|
| Airport | Oslo-Gardermoen International Airport (ENGM) |
| Time | Latitude | Longitude | Altitude | Speed | Heading |
|---|---|---|---|---|---|
| 2026-05-07 11:37 | 50.04403 | 8.56222 | 362 ft | 0 kts | 159° |
| 2026-05-07 12:07 | 50.04416 | 8.56215 | 362 ft | 4 kts | 161° |
| 2026-05-07 12:07 | 50.04441 | 8.56203 | 361 ft | 4 kts | 172° |
| 2026-05-07 12:08 | 50.04467 | 8.56204 | 358 ft | 4 kts | 209° |
| 2026-05-07 12:08 | 50.04476 | 8.56214 | 363 ft | 4 kts | 250° |
| 2026-05-07 12:08 | 50.04467 | 8.56175 | 356 ft | 4 kts | 250° |
| 2026-05-07 12:08 | 50.04457 | 8.56135 | 359 ft | 4 kts | 250° |
| 2026-05-07 12:09 | 50.04453 | 8.56118 | 363 ft | 0 kts | 249° |
| 2026-05-07 12:11 | 50.04450 | 8.56103 | 363 ft | 4 kts | 249° |
| 2026-05-07 12:12 | 50.04418 | 8.56035 | 356 ft | 11 kts | 204° |
| 2026-05-07 12:12 | 50.04324 | 8.56061 | 358 ft | 18 kts | 159° |
| 2026-05-07 12:12 | 50.04272 | 8.56215 | 355 ft | 15 kts | 139° |
| 2026-05-07 12:12 | 50.04176 | 8.56278 | 358 ft | 15 kts | 159° |
| 2026-05-07 12:13 | 50.04145 | 8.56297 | 357 ft | 0 kts | 153° |
| 2026-05-07 12:13 | 50.04145 | 8.56344 | 358 ft | 11 kts | 83° |
| 2026-05-07 12:13 | 50.04182 | 8.56515 | 360 ft | 23 kts | 69° |
| 2026-05-07 12:13 | 50.04245 | 8.56779 | 362 ft | 27 kts | 70° |
| 2026-05-07 12:14 | 50.04309 | 8.57052 | 361 ft | 27 kts | 69° |
| 2026-05-07 12:14 | 50.04377 | 8.57324 | 363 ft | 28 kts | 68° |
| 2026-05-07 12:14 | 50.04445 | 8.57611 | 369 ft | 28 kts | 70° |
| 2026-05-07 12:14 | 50.04513 | 8.57899 | 364 ft | 29 kts | 69° |
| 2026-05-07 12:15 | 50.04586 | 8.58197 | 369 ft | 30 kts | 70° |
| 2026-05-07 12:15 | 50.04651 | 8.58471 | 370 ft | 23 kts | 72° |
| 2026-05-07 12:15 | 50.04590 | 8.58583 | 374 ft | 11 kts | 159° |
| 2026-05-07 12:15 | 50.04527 | 8.58615 | 371 ft | 8 kts | 174° |
| 2026-05-07 12:16 | 50.04487 | 8.58580 | 370 ft | 6 kts | 237° |
| 2026-05-07 12:16 | 50.04477 | 8.58544 | 370 ft | 0 kts | 249° |
| 2026-05-07 12:16 | 50.04476 | 8.58542 | 370 ft | 2 kts | 249° |
| 2026-05-07 12:17 | 50.04406 | 8.58253 | 371 ft | 65 kts | 250° |
| 2026-05-07 12:17 | 50.04171 | 8.57266 | 367 ft | 126 kts | 250° |
| 2026-05-07 12:17 | 50.03809 | 8.55752 | 388 ft | 169 kts | 249° |
| 2026-05-07 12:17 | 50.03395 | 8.54059 | 1095 ft | 167 kts | 249° |
| 2026-05-07 12:18 | 50.02981 | 8.52364 | 1794 ft | 172 kts | 252° |
| 2026-05-07 12:18 | 50.02507 | 8.50540 | 2154 ft | 194 kts | 242° |
| 2026-05-07 12:18 | 50.01565 | 8.48918 | 2694 ft | 209 kts | 216° |
| 2026-05-07 12:18 | 50.00220 | 8.48036 | 3472 ft | 214 kts | 192° |
| 2026-05-07 12:19 | 49.98760 | 8.47693 | 4248 ft | 215 kts | 190° |
| 2026-05-07 12:19 | 49.97264 | 8.47360 | 5021 ft | 217 kts | 190° |
| 2026-05-07 12:19 | 49.95774 | 8.46945 | 5731 ft | 222 kts | 198° |
| 2026-05-07 12:19 | 49.94208 | 8.46231 | 6102 ft | 245 kts | 198° |
| 2026-05-07 12:20 | 49.92558 | 8.45373 | 6732 ft | 254 kts | 210° |
| 2026-05-07 12:20 | 49.91238 | 8.43599 | 7445 ft | 253 kts | 239° |
| 2026-05-07 12:20 | 49.90641 | 8.41065 | 8239 ft | 252 kts | 268° |
| 2026-05-07 12:20 | 49.90896 | 8.38413 | 9055 ft | 252 kts | 295° |
| 2026-05-07 12:21 | 49.91950 | 8.36257 | 9870 ft | 255 kts | 322° |
| 2026-05-07 12:21 | 49.93530 | 8.34978 | 10531 ft | 264 kts | 336° |
| 2026-05-07 12:21 | 49.95300 | 8.33826 | 10784 ft | 288 kts | 336° |
| 2026-05-07 12:21 | 49.97233 | 8.32587 | 11005 ft | 311 kts | 336° |
| 2026-05-07 12:22 | 49.99279 | 8.31273 | 11492 ft | 323 kts | 336° |
| 2026-05-07 12:22 | 50.01370 | 8.29926 | 12198 ft | 328 kts | 336° |
| 2026-05-07 12:22 | 50.03559 | 8.28854 | 12911 ft | 333 kts | 349° |
| 2026-05-07 12:22 | 50.05889 | 8.28693 | 13615 ft | 339 kts | 4° |
| 2026-05-07 12:23 | 50.08202 | 8.29516 | 14266 ft | 344 kts | 17° |
| 2026-05-07 12:23 | 50.10479 | 8.30718 | 14893 ft | 348 kts | 17° |
| 2026-05-07 12:23 | 50.12784 | 8.31932 | 15514 ft | 351 kts | 17° |
| 2026-05-07 12:23 | 50.15103 | 8.33147 | 16150 ft | 354 kts | 17° |
| 2026-05-07 12:24 | 50.17447 | 8.34372 | 16766 ft | 357 kts | 17° |
| 2026-05-07 12:24 | 50.19816 | 8.35614 | 17377 ft | 361 kts | 17° |
| 2026-05-07 12:24 | 50.22207 | 8.36873 | 17994 ft | 364 kts | 17° |
| 2026-05-07 12:24 | 50.24610 | 8.38143 | 18547 ft | 368 kts | 17° |
| 2026-05-07 12:25 | 50.27050 | 8.39434 | 19074 ft | 371 kts | 17° |
| 2026-05-07 12:25 | 50.29474 | 8.40712 | 19597 ft | 374 kts | 17° |
| 2026-05-07 12:25 | 50.31975 | 8.42043 | 20119 ft | 377 kts | 18° |
| 2026-05-07 12:25 | 50.34464 | 8.43388 | 20661 ft | 379 kts | 18° |
| 2026-05-07 12:26 | 50.36961 | 8.44749 | 21166 ft | 382 kts | 18° |
| 2026-05-07 12:26 | 50.39451 | 8.46119 | 21656 ft | 385 kts | 18° |
| 2026-05-07 12:26 | 50.41989 | 8.47521 | 22140 ft | 388 kts | 18° |
| 2026-05-07 12:26 | 50.44554 | 8.48937 | 22607 ft | 391 kts | 19° |
| 2026-05-07 12:27 | 50.47126 | 8.50352 | 23092 ft | 394 kts | 19° |
| 2026-05-07 12:27 | 50.49733 | 8.51723 | 23550 ft | 397 kts | 17° |
| 2026-05-07 12:27 | 50.52399 | 8.53025 | 23942 ft | 399 kts | 15° |
| 2026-05-07 12:27 | 50.55063 | 8.54271 | 24333 ft | 402 kts | 16° |
| 2026-05-07 12:28 | 50.57751 | 8.55510 | 24706 ft | 404 kts | 15° |
| 2026-05-07 12:28 | 50.60469 | 8.56773 | 25067 ft | 407 kts | 16° |
| 2026-05-07 12:28 | 50.63164 | 8.58045 | 25445 ft | 409 kts | 16° |
| 2026-05-07 12:28 | 50.65903 | 8.59351 | 25828 ft | 412 kts | 16° |
| 2026-05-07 12:29 | 50.68647 | 8.60666 | 26206 ft | 414 kts | 17° |
| 2026-05-07 12:29 | 50.71399 | 8.61995 | 26572 ft | 416 kts | 16° |
| 2026-05-07 12:29 | 50.74177 | 8.63340 | 26933 ft | 418 kts | 16° |
| 2026-05-07 12:29 | 50.76967 | 8.64696 | 27292 ft | 420 kts | 18° |
| 2026-05-07 12:30 | 50.79680 | 8.66466 | 27630 ft | 423 kts | 27° |
| 2026-05-07 12:30 | 50.82170 | 8.68953 | 27973 ft | 425 kts | 37° |
| 2026-05-07 12:30 | 50.84374 | 8.72091 | 28325 ft | 428 kts | 47° |
| 2026-05-07 12:30 | 50.86254 | 8.75762 | 28658 ft | 430 kts | 53° |
| 2026-05-07 12:31 | 50.88066 | 8.79557 | 29012 ft | 432 kts | 52° |
| 2026-05-07 12:31 | 50.89884 | 8.83365 | 29342 ft | 434 kts | 53° |
| 2026-05-07 12:31 | 50.91711 | 8.87194 | 29677 ft | 436 kts | 52° |
| 2026-05-07 12:31 | 50.93544 | 8.91032 | 29994 ft | 438 kts | 53° |
| 2026-05-07 12:32 | 50.95394 | 8.94907 | 30277 ft | 440 kts | 52° |
| 2026-05-07 12:32 | 50.97240 | 8.98781 | 30523 ft | 442 kts | 52° |
| 2026-05-07 12:32 | 50.99077 | 9.02638 | 30760 ft | 444 kts | 52° |
| 2026-05-07 12:32 | 51.00939 | 9.06555 | 31014 ft | 446 kts | 53° |
| 2026-05-07 12:33 | 51.04680 | 9.14443 | 31608 ft | 446 kts | 53° |
| 2026-05-07 12:33 | 51.06550 | 9.18398 | 31940 ft | 446 kts | 52° |
| 2026-05-07 12:33 | 51.08531 | 9.22192 | 32252 ft | 446 kts | 45° |
| 2026-05-07 12:34 | 51.10861 | 9.25433 | 32565 ft | 445 kts | 35° |
| 2026-05-07 12:34 | 51.13482 | 9.28009 | 32865 ft | 444 kts | 26° |
| 2026-05-07 12:34 | 51.16343 | 9.29865 | 33170 ft | 442 kts | 15° |
| 2026-05-07 12:34 | 51.19335 | 9.31009 | 33477 ft | 442 kts | 11° |
| 2026-05-07 12:35 | 51.22338 | 9.32027 | 33774 ft | 442 kts | 11° |
| 2026-05-07 12:35 | 51.25337 | 9.33058 | 34106 ft | 441 kts | 11° |
| 2026-05-07 12:35 | 51.28341 | 9.34104 | 34374 ft | 441 kts | 11° |
| 2026-05-07 12:35 | 51.31306 | 9.35140 | 34596 ft | 442 kts | 11° |
| 2026-05-07 12:36 | 51.34314 | 9.36193 | 34790 ft | 443 kts | 11° |
| 2026-05-07 12:36 | 51.37325 | 9.37247 | 35001 ft | 444 kts | 11° |
| 2026-05-07 12:36 | 51.40365 | 9.38309 | 35187 ft | 445 kts | 11° |
| 2026-05-07 12:36 | 51.43390 | 9.39362 | 35403 ft | 446 kts | 11° |
| 2026-05-07 12:37 | 51.46431 | 9.40419 | 35583 ft | 447 kts | 11° |
| 2026-05-07 12:37 | 51.49466 | 9.41474 | 35767 ft | 447 kts | 11° |
| 2026-05-07 12:37 | 51.52519 | 9.42539 | 35978 ft | 448 kts | 11° |
| 2026-05-07 12:37 | 51.55570 | 9.43608 | 36159 ft | 449 kts | 11° |
| 2026-05-07 12:38 | 51.58619 | 9.44681 | 36373 ft | 449 kts | 11° |
| 2026-05-07 12:38 | 51.61641 | 9.45749 | 36549 ft | 450 kts | 12° |
| 2026-05-07 12:38 | 51.64698 | 9.46829 | 36744 ft | 450 kts | 11° |
| 2026-05-07 12:38 | 51.67765 | 9.47914 | 36941 ft | 450 kts | 11° |
| 2026-05-07 12:39 | 51.73884 | 9.50081 | 37049 ft | 449 kts | 12° |
| 2026-05-07 12:39 | 51.80003 | 9.52260 | 37049 ft | 449 kts | 11° |
| 2026-05-07 12:40 | 51.85116 | 9.53605 | 37057 ft | 448 kts | 4° |
| 2026-05-07 12:40 | 51.91322 | 9.54412 | 37058 ft | 448 kts | 4° |
| 2026-05-07 12:41 | 51.97541 | 9.55254 | 37055 ft | 448 kts | 4° |
| 2026-05-07 12:41 | 52.03759 | 9.56108 | 37070 ft | 448 kts | 4° |
| 2026-05-07 12:42 | 52.09946 | 9.56959 | 37073 ft | 449 kts | 4° |
| 2026-05-07 12:42 | 52.16176 | 9.57812 | 37081 ft | 449 kts | 4° |
| 2026-05-07 12:43 | 52.22394 | 9.58657 | 37087 ft | 449 kts | 4° |
| 2026-05-07 12:43 | 52.28617 | 9.59502 | 37103 ft | 449 kts | 4° |
| 2026-05-07 12:44 | 52.34856 | 9.60354 | 37099 ft | 449 kts | 4° |
| 2026-05-07 12:44 | 52.41075 | 9.61217 | 37099 ft | 449 kts | 4° |
| 2026-05-07 12:45 | 52.47274 | 9.62072 | 37097 ft | 449 kts | 4° |
| 2026-05-07 12:45 | 52.53515 | 9.62930 | 37098 ft | 449 kts | 4° |
| 2026-05-07 12:46 | 52.59739 | 9.63792 | 37104 ft | 449 kts | 4° |
| 2026-05-07 12:46 | 52.65956 | 9.64664 | 37110 ft | 448 kts | 4° |
| 2026-05-07 12:47 | 52.72177 | 9.65527 | 37091 ft | 448 kts | 4° |
| 2026-05-07 12:47 | 52.78363 | 9.66386 | 37090 ft | 448 kts | 4° |
| 2026-05-07 12:48 | 52.84578 | 9.67262 | 37091 ft | 448 kts | 4° |
| 2026-05-07 12:48 | 52.90801 | 9.68144 | 37092 ft | 448 kts | 4° |
| 2026-05-07 12:49 | 52.97033 | 9.69022 | 37087 ft | 449 kts | 4° |
| 2026-05-07 12:49 | 53.03259 | 9.69897 | 37089 ft | 449 kts | 4° |
| 2026-05-07 12:50 | 53.09490 | 9.70788 | 37085 ft | 449 kts | 4° |
| 2026-05-07 12:50 | 53.15682 | 9.71674 | 37087 ft | 449 kts | 4° |
| 2026-05-07 12:51 | 53.21900 | 9.72557 | 37087 ft | 449 kts | 4° |
| 2026-05-07 12:51 | 53.28129 | 9.73454 | 37088 ft | 449 kts | 4° |
| 2026-05-07 12:52 | 53.34364 | 9.74347 | 37092 ft | 448 kts | 4° |
| 2026-05-07 12:52 | 53.40581 | 9.75236 | 37090 ft | 449 kts | 4° |
| 2026-05-07 12:53 | 53.46773 | 9.76129 | 37098 ft | 448 kts | 4° |
| 2026-05-07 12:53 | 53.52960 | 9.77027 | 37098 ft | 448 kts | 4° |
| 2026-05-07 12:54 | 53.59188 | 9.77927 | 37098 ft | 448 kts | 4° |
| 2026-05-07 12:54 | 53.65408 | 9.78839 | 37096 ft | 448 kts | 3° |
| 2026-05-07 12:55 | 53.71633 | 9.79757 | 37093 ft | 449 kts | 4° |
| 2026-05-07 12:55 | 53.77821 | 9.80660 | 37091 ft | 449 kts | 4° |
| 2026-05-07 12:56 | 53.84042 | 9.81568 | 37089 ft | 449 kts | 4° |
| 2026-05-07 12:56 | 53.90264 | 9.82488 | 37093 ft | 449 kts | 4° |
| 2026-05-07 12:57 | 53.96480 | 9.83406 | 37095 ft | 448 kts | 4° |
| 2026-05-07 12:57 | 54.02695 | 9.84328 | 37093 ft | 448 kts | 4° |
| 2026-05-07 12:58 | 54.08910 | 9.85263 | 37100 ft | 448 kts | 4° |
| 2026-05-07 12:58 | 54.15133 | 9.86197 | 37110 ft | 448 kts | 4° |
| 2026-05-07 12:59 | 54.21340 | 9.87118 | 37105 ft | 447 kts | 4° |
| 2026-05-07 12:59 | 54.27540 | 9.88049 | 37121 ft | 447 kts | 4° |
| 2026-05-07 13:00 | 54.33733 | 9.88978 | 37119 ft | 447 kts | 4° |
| 2026-05-07 13:00 | 54.39919 | 9.89914 | 37128 ft | 446 kts | 4° |
| 2026-05-07 13:01 | 54.46092 | 9.90852 | 37130 ft | 445 kts | 4° |
| 2026-05-07 13:01 | 54.52222 | 9.91782 | 37125 ft | 444 kts | 4° |
| 2026-05-07 13:02 | 54.58383 | 9.92707 | 37122 ft | 444 kts | 4° |
| 2026-05-07 13:02 | 54.64540 | 9.93648 | 37129 ft | 443 kts | 4° |
| 2026-05-07 13:03 | 54.70685 | 9.94603 | 37133 ft | 443 kts | 4° |
| 2026-05-07 13:03 | 54.76811 | 9.95540 | 37130 ft | 442 kts | 4° |
| 2026-05-07 13:04 | 54.82908 | 9.96993 | 37126 ft | 442 kts | 12° |
| 2026-05-07 13:04 | 54.88891 | 9.99469 | 37129 ft | 442 kts | 12° |
| 2026-05-07 13:05 | 54.94850 | 10.01934 | 37127 ft | 441 kts | 12° |
| 2026-05-07 13:05 | 55.00820 | 10.04394 | 37129 ft | 441 kts | 12° |
| 2026-05-07 13:06 | 55.06787 | 10.06855 | 37117 ft | 441 kts | 12° |
| 2026-05-07 13:06 | 55.12760 | 10.09339 | 37122 ft | 440 kts | 12° |
| 2026-05-07 13:07 | 55.18729 | 10.11839 | 37118 ft | 440 kts | 12° |
| 2026-05-07 13:07 | 55.24641 | 10.14332 | 37119 ft | 440 kts | 12° |
| 2026-05-07 13:08 | 55.30592 | 10.16835 | 37122 ft | 440 kts | 12° |
| 2026-05-07 13:08 | 55.36549 | 10.19328 | 37124 ft | 440 kts | 12° |
| 2026-05-07 13:09 | 55.42506 | 10.21847 | 37117 ft | 439 kts | 12° |
| 2026-05-07 13:09 | 55.48449 | 10.24377 | 37116 ft | 439 kts | 12° |
| 2026-05-07 13:10 | 55.54399 | 10.26914 | 37118 ft | 439 kts | 12° |
| 2026-05-07 13:10 | 55.60346 | 10.29444 | 37114 ft | 439 kts | 12° |
| 2026-05-07 13:11 | 55.66285 | 10.31984 | 37120 ft | 439 kts | 12° |
| 2026-05-07 13:11 | 55.72191 | 10.34517 | 37114 ft | 439 kts | 12° |
| 2026-05-07 13:12 | 55.78125 | 10.37071 | 37108 ft | 439 kts | 12° |
| 2026-05-07 13:12 | 55.84061 | 10.39641 | 37116 ft | 439 kts | 12° |
| 2026-05-07 13:13 | 55.89980 | 10.42211 | 37128 ft | 439 kts | 12° |
| 2026-05-07 13:13 | 55.95917 | 10.44784 | 37125 ft | 440 kts | 12° |
| 2026-05-07 13:14 | 56.01872 | 10.47375 | 37124 ft | 440 kts | 12° |
| 2026-05-07 13:14 | 56.07823 | 10.49979 | 37123 ft | 440 kts | 12° |
| 2026-05-07 13:15 | 56.13771 | 10.52603 | 37135 ft | 439 kts | 12° |
| 2026-05-07 13:15 | 56.18706 | 10.54787 | 37125 ft | 439 kts | 12° |
| 2026-05-07 13:16 | 56.25645 | 10.57853 | 37126 ft | 439 kts | 12° |
| 2026-05-07 13:16 | 56.31533 | 10.60462 | 37123 ft | 439 kts | 12° |
| 2026-05-07 13:17 | 56.37460 | 10.63098 | 37121 ft | 438 kts | 12° |
| 2026-05-07 13:17 | 56.43381 | 10.65740 | 37134 ft | 438 kts | 11° |
| 2026-05-07 13:18 | 56.49310 | 10.68392 | 37131 ft | 438 kts | 11° |
| 2026-05-07 13:18 | 56.55228 | 10.71038 | 37131 ft | 438 kts | 11° |
| 2026-05-07 13:19 | 56.61151 | 10.73709 | 37131 ft | 438 kts | 12° |
| 2026-05-07 13:19 | 56.67073 | 10.76387 | 37145 ft | 438 kts | 11° |
| 2026-05-07 13:20 | 56.72988 | 10.79071 | 37140 ft | 438 kts | 11° |
| 2026-05-07 13:20 | 56.78899 | 10.81766 | 37138 ft | 437 kts | 11° |
| 2026-05-07 13:21 | 56.84775 | 10.84440 | 37137 ft | 437 kts | 11° |
| 2026-05-07 13:21 | 56.90680 | 10.87135 | 37135 ft | 437 kts | 11° |